sensor_id;sensor_type;location;lat;lon;timestamp;P1;durP1;ratioP1;P2;durP2;ratioP2
10586;SDS011;5341;47.606;7.576;2023-02-01T00:00:01;8.40;;;4.35;;
10586;SDS011;5341;47.606;7.576;2023-02-01T00:02:30;5.15;;;4.47;;
10586;SDS011;5341;47.606;7.576;2023-02-01T00:05:00;5.75;;;4.30;;
10586;SDS011;5341;47.606;7.576;2023-02-01T00:07:29;6.55;;;4.75;;
10586;SDS011;5341;47.606;7.576;2023-02-01T00:09:56;6.00;;;4.72;;
10586;SDS011;5341;47.606;7.576;2023-02-01T00:12:24;5.63;;;4.35;;
10586;SDS011;5341;47.606;7.576;2023-02-01T00:14:52;6.32;;;4.45;;
10586;SDS011;5341;47.606;7.576;2023-02-01T00:17:21;4.88;;;4.20;;
10586;SDS011;5341;47.606;7.576;2023-02-01T00:19:48;5.57;;;4.38;;
10586;SDS011;5341;47.606;7.576;2023-02-01T00:22:19;5.63;;;4.40;;
10586;SDS011;5341;47.606;7.576;2023-02-01T00:24:47;5.22;;;4.50;;
10586;SDS011;5341;47.606;7.576;2023-02-01T00:27:14;5.07;;;4.28;;
10586;SDS011;5341;47.606;7.576;2023-02-01T00:29:45;6.05;;;4.63;;
10586;SDS011;5341;47.606;7.576;2023-02-01T00:32:14;5.78;;;4.20;;
10586;SDS011;5341;47.606;7.576;2023-02-01T00:34:42;7.50;;;4.40;;
10586;SDS011;5341;47.606;7.576;2023-02-01T00:37:10;6.47;;;4.78;;
10586;SDS011;5341;47.606;7.576;2023-02-01T00:39:39;6.07;;;5.15;;
10586;SDS011;5341;47.606;7.576;2023-02-01T00:42:07;5.32;;;4.38;;
10586;SDS011;5341;47.606;7.576;2023-02-01T00:44:35;6.35;;;4.40;;
10586;SDS011;5341;47.606;7.576;2023-02-01T00:47:03;6.55;;;4.53;;
10586;SDS011;5341;47.606;7.576;2023-02-01T00:49:40;5.60;;;4.70;;
10586;SDS011;5341;47.606;7.576;2023-02-01T00:52:07;5.50;;;4.50;;
10586;SDS011;5341;47.606;7.576;2023-02-01T00:57:27;5.57;;;4.72;;
10586;SDS011;5341;47.606;7.576;2023-02-01T00:59:56;5.72;;;4.75;;
10586;SDS011;5341;47.606;7.576;2023-02-01T01:02:29;6.35;;;4.57;;
10586;SDS011;5341;47.606;7.576;2023-02-01T01:04:58;5.03;;;4.53;;
10586;SDS011;5341;47.606;7.576;2023-02-01T01:07:25;7.45;;;4.55;;
10586;SDS011;5341;47.606;7.576;2023-02-01T01:09:57;5.20;;;4.40;;
10586;SDS011;5341;47.606;7.576;2023-02-01T01:12:28;6.22;;;5.05;;
10586;SDS011;5341;47.606;7.576;2023-02-01T01:14:55;6.28;;;5.07;;
10586;SDS011;5341;47.606;7.576;2023-02-01T01:17:22;5.70;;;4.80;;
10586;SDS011;5341;47.606;7.576;2023-02-01T01:19:50;5.80;;;4.57;;
10586;SDS011;5341;47.606;7.576;2023-02-01T01:22:17;7.60;;;4.68;;
10586;SDS011;5341;47.606;7.576;2023-02-01T01:24:45;6.20;;;4.97;;
10586;SDS011;5341;47.606;7.576;2023-02-01T01:27:12;5.32;;;4.82;;
10586;SDS011;5341;47.606;7.576;2023-02-01T01:29:41;6.13;;;4.93;;
10586;SDS011;5341;47.606;7.576;2023-02-01T01:32:09;6.68;;;4.80;;
10586;SDS011;5341;47.606;7.576;2023-02-01T01:34:37;5.32;;;4.53;;
10586;SDS011;5341;47.606;7.576;2023-02-01T01:37:04;6.88;;;4.80;;
10586;SDS011;5341;47.606;7.576;2023-02-01T01:39:32;9.52;;;5.35;;
10586;SDS011;5341;47.606;7.576;2023-02-01T01:41:59;6.65;;;5.03;;
10586;SDS011;5341;47.606;7.576;2023-02-01T01:47:35;6.03;;;4.95;;
10586;SDS011;5341;47.606;7.576;2023-02-01T01:50:08;6.03;;;4.75;;
10586;SDS011;5341;47.606;7.576;2023-02-01T01:52:40;7.47;;;4.68;;
10586;SDS011;5341;47.606;7.576;2023-02-01T01:55:10;6.13;;;4.50;;
10586;SDS011;5341;47.606;7.576;2023-02-01T01:57:42;5.35;;;4.60;;
10586;SDS011;5341;47.606;7.576;2023-02-01T02:00:19;6.70;;;5.05;;
10586;SDS011;5341;47.606;7.576;2023-02-01T02:02:52;6.30;;;5.32;;
10586;SDS011;5341;47.606;7.576;2023-02-01T02:05:24;7.20;;;5.18;;
10586;SDS011;5341;47.606;7.576;2023-02-01T02:07:54;8.35;;;5.03;;
10586;SDS011;5341;47.606;7.576;2023-02-01T02:10:25;6.57;;;5.05;;
10586;SDS011;5341;47.606;7.576;2023-02-01T02:13:15;8.73;;;5.35;;
10586;SDS011;5341;47.606;7.576;2023-02-01T02:15:48;6.38;;;5.07;;
10586;SDS011;5341;47.606;7.576;2023-02-01T02:18:27;7.20;;;5.70;;
10586;SDS011;5341;47.606;7.576;2023-02-01T02:21:16;6.53;;;5.45;;
10586;SDS011;5341;47.606;7.576;2023-02-01T02:24:13;6.47;;;4.82;;
10586;SDS011;5341;47.606;7.576;2023-02-01T02:27:02;7.00;;;5.78;;
10586;SDS011;5341;47.606;7.576;2023-02-01T02:35:59;6.15;;;5.07;;
10586;SDS011;5341;47.606;7.576;2023-02-01T02:38:30;9.48;;;5.28;;
10586;SDS011;5341;47.606;7.576;2023-02-01T02:41:03;6.78;;;5.38;;
10586;SDS011;5341;47.606;7.576;2023-02-01T02:44:03;6.85;;;5.30;;
10586;SDS011;5341;47.606;7.576;2023-02-01T02:46:55;8.18;;;5.20;;
10586;SDS011;5341;47.606;7.576;2023-02-01T02:49:55;7.78;;;5.25;;
10586;SDS011;5341;47.606;7.576;2023-02-01T02:53:04;6.90;;;5.40;;
10586;SDS011;5341;47.606;7.576;2023-02-01T02:55:56;7.68;;;5.25;;
10586;SDS011;5341;47.606;7.576;2023-02-01T02:58:43;7.60;;;5.40;;
10586;SDS011;5341;47.606;7.576;2023-02-01T03:01:30;6.75;;;5.50;;
10586;SDS011;5341;47.606;7.576;2023-02-01T03:04:17;6.07;;;5.35;;
10586;SDS011;5341;47.606;7.576;2023-02-01T03:06:50;7.70;;;5.88;;
10586;SDS011;5341;47.606;7.576;2023-02-01T03:09:22;8.13;;;5.25;;
10586;SDS011;5341;47.606;7.576;2023-02-01T03:11:56;7.35;;;5.47;;
10586;SDS011;5341;47.606;7.576;2023-02-01T03:14:52;6.88;;;5.57;;
10586;SDS011;5341;47.606;7.576;2023-02-01T03:17:27;7.25;;;5.60;;
10586;SDS011;5341;47.606;7.576;2023-02-01T03:20:02;6.57;;;5.20;;
10586;SDS011;5341;47.606;7.576;2023-02-01T03:25:04;7.07;;;5.65;;
10586;SDS011;5341;47.606;7.576;2023-02-01T03:27:34;8.45;;;5.68;;
10586;SDS011;5341;47.606;7.576;2023-02-01T03:30:07;6.07;;;5.38;;
10586;SDS011;5341;47.606;7.576;2023-02-01T03:32:44;8.50;;;5.93;;
10586;SDS011;5341;47.606;7.576;2023-02-01T03:35:28;7.50;;;4.90;;
10586;SDS011;5341;47.606;7.576;2023-02-01T03:38:01;6.88;;;5.70;;
10586;SDS011;5341;47.606;7.576;2023-02-01T03:40:38;6.90;;;5.55;;
10586;SDS011;5341;47.606;7.576;2023-02-01T03:43:09;6.60;;;5.72;;
10586;SDS011;5341;47.606;7.576;2023-02-01T03:45:42;7.07;;;5.47;;
10586;SDS011;5341;47.606;7.576;2023-02-01T03:48:14;6.18;;;5.38;;
10586;SDS011;5341;47.606;7.576;2023-02-01T03:50:44;6.50;;;5.57;;
10586;SDS011;5341;47.606;7.576;2023-02-01T03:53:19;8.43;;;5.90;;
10586;SDS011;5341;47.606;7.576;2023-02-01T03:56:00;10.60;;;5.57;;
10586;SDS011;5341;47.606;7.576;2023-02-01T03:58:30;7.70;;;5.30;;
10586;SDS011;5341;47.606;7.576;2023-02-01T04:00:58;6.28;;;5.45;;
10586;SDS011;5341;47.606;7.576;2023-02-01T04:03:30;7.30;;;5.50;;
10586;SDS011;5341;47.606;7.576;2023-02-01T04:05:59;6.95;;;5.85;;
10586;SDS011;5341;47.606;7.576;2023-02-01T04:08:28;6.68;;;5.80;;
10586;SDS011;5341;47.606;7.576;2023-02-01T04:10:56;10.90;;;5.72;;
10586;SDS011;5341;47.606;7.576;2023-02-01T04:13:25;7.38;;;5.60;;
10586;SDS011;5341;47.606;7.576;2023-02-01T04:15:54;6.40;;;5.53;;
10586;SDS011;5341;47.606;7.576;2023-02-01T04:18:23;7.82;;;6.10;;
10586;SDS011;5341;47.606;7.576;2023-02-01T04:20:50;7.32;;;5.63;;
10586;SDS011;5341;47.606;7.576;2023-02-01T04:23:21;9.25;;;5.80;;
10586;SDS011;5341;47.606;7.576;2023-02-01T04:25:48;6.55;;;5.82;;
10586;SDS011;5341;47.606;7.576;2023-02-01T04:28:27;6.90;;;5.53;;
10586;SDS011;5341;47.606;7.576;2023-02-01T04:30:55;6.63;;;5.10;;
10586;SDS011;5341;47.606;7.576;2023-02-01T04:33:23;7.75;;;5.53;;
10586;SDS011;5341;47.606;7.576;2023-02-01T04:35:52;6.72;;;5.53;;
10586;SDS011;5341;47.606;7.576;2023-02-01T04:38:19;7.75;;;5.43;;
10586;SDS011;5341;47.606;7.576;2023-02-01T04:40:47;7.50;;;5.20;;
10586;SDS011;5341;47.606;7.576;2023-02-01T04:43:19;6.85;;;5.40;;
10586;SDS011;5341;47.606;7.576;2023-02-01T04:45:48;6.82;;;5.35;;
10586;SDS011;5341;47.606;7.576;2023-02-01T04:48:17;7.72;;;5.72;;
10586;SDS011;5341;47.606;7.576;2023-02-01T04:50:46;6.35;;;4.75;;
10586;SDS011;5341;47.606;7.576;2023-02-01T04:53:15;8.82;;;5.82;;
10586;SDS011;5341;47.606;7.576;2023-02-01T04:55:43;6.65;;;5.32;;
10586;SDS011;5341;47.606;7.576;2023-02-01T04:58:10;7.85;;;5.13;;
10586;SDS011;5341;47.606;7.576;2023-02-01T05:00:38;6.60;;;5.25;;
10586;SDS011;5341;47.606;7.576;2023-02-01T05:03:07;6.45;;;5.43;;
10586;SDS011;5341;47.606;7.576;2023-02-01T05:05:36;7.90;;;5.47;;
10586;SDS011;5341;47.606;7.576;2023-02-01T05:08:09;7.40;;;5.60;;
10586;SDS011;5341;47.606;7.576;2023-02-01T05:10:36;6.13;;;4.82;;
10586;SDS011;5341;47.606;7.576;2023-02-01T05:13:03;7.32;;;4.90;;
10586;SDS011;5341;47.606;7.576;2023-02-01T05:15:49;7.07;;;5.50;;
10586;SDS011;5341;47.606;7.576;2023-02-01T05:18:25;5.85;;;5.00;;
10586;SDS011;5341;47.606;7.576;2023-02-01T05:20:53;5.72;;;5.00;;
10586;SDS011;5341;47.606;7.576;2023-02-01T05:23:21;6.45;;;5.15;;
10586;SDS011;5341;47.606;7.576;2023-02-01T05:25:49;6.85;;;5.30;;
10586;SDS011;5341;47.606;7.576;2023-02-01T05:28:16;5.32;;;4.68;;
10586;SDS011;5341;47.606;7.576;2023-02-01T05:30:44;7.53;;;4.97;;
10586;SDS011;5341;47.606;7.576;2023-02-01T05:33:11;6.10;;;5.05;;
10586;SDS011;5341;47.606;7.576;2023-02-01T05:35:41;7.78;;;5.40;;
10586;SDS011;5341;47.606;7.576;2023-02-01T05:38:08;5.90;;;4.93;;
10586;SDS011;5341;47.606;7.576;2023-02-01T05:40:36;6.53;;;4.95;;
10586;SDS011;5341;47.606;7.576;2023-02-01T05:43:03;6.55;;;5.22;;
10586;SDS011;5341;47.606;7.576;2023-02-01T05:45:30;7.00;;;5.35;;
10586;SDS011;5341;47.606;7.576;2023-02-01T05:47:59;6.60;;;4.40;;
10586;SDS011;5341;47.606;7.576;2023-02-01T05:50:27;6.60;;;5.38;;
10586;SDS011;5341;47.606;7.576;2023-02-01T05:52:58;5.88;;;4.40;;
10586;SDS011;5341;47.606;7.576;2023-02-01T05:55:25;7.40;;;5.00;;
10586;SDS011;5341;47.606;7.576;2023-02-01T05:57:52;6.78;;;4.90;;
10586;SDS011;5341;47.606;7.576;2023-02-01T06:00:21;6.53;;;5.05;;
10586;SDS011;5341;47.606;7.576;2023-02-01T06:02:50;7.45;;;5.25;;
10586;SDS011;5341;47.606;7.576;2023-02-01T06:05:20;7.80;;;5.10;;
10586;SDS011;5341;47.606;7.576;2023-02-01T06:07:48;5.97;;;4.90;;
10586;SDS011;5341;47.606;7.576;2023-02-01T06:10:17;6.07;;;5.13;;
10586;SDS011;5341;47.606;7.576;2023-02-01T06:12:45;5.95;;;4.57;;
10586;SDS011;5341;47.606;7.576;2023-02-01T06:15:14;5.50;;;4.90;;
10586;SDS011;5341;47.606;7.576;2023-02-01T06:17:42;6.00;;;4.90;;
10586;SDS011;5341;47.606;7.576;2023-02-01T06:20:11;5.45;;;4.85;;
10586;SDS011;5341;47.606;7.576;2023-02-01T06:22:40;5.70;;;4.53;;
10586;SDS011;5341;47.606;7.576;2023-02-01T06:25:08;5.82;;;5.07;;
10586;SDS011;5341;47.606;7.576;2023-02-01T06:27:38;7.85;;;4.90;;
10586;SDS011;5341;47.606;7.576;2023-02-01T06:30:06;6.32;;;4.78;;
10586;SDS011;5341;47.606;7.576;2023-02-01T06:32:35;5.65;;;5.05;;
10586;SDS011;5341;47.606;7.576;2023-02-01T06:35:05;7.88;;;5.28;;
10586;SDS011;5341;47.606;7.576;2023-02-01T06:37:33;5.82;;;5.13;;
10586;SDS011;5341;47.606;7.576;2023-02-01T06:40:03;6.57;;;4.90;;
10586;SDS011;5341;47.606;7.576;2023-02-01T06:42:34;7.88;;;5.47;;
10586;SDS011;5341;47.606;7.576;2023-02-01T06:45:03;7.03;;;5.13;;
10586;SDS011;5341;47.606;7.576;2023-02-01T06:47:32;6.40;;;4.97;;
10586;SDS011;5341;47.606;7.576;2023-02-01T06:50:00;6.15;;;5.10;;
10586;SDS011;5341;47.606;7.576;2023-02-01T06:52:31;5.90;;;4.95;;
10586;SDS011;5341;47.606;7.576;2023-02-01T06:54:58;7.05;;;4.95;;
10586;SDS011;5341;47.606;7.576;2023-02-01T06:57:27;5.22;;;4.70;;
10586;SDS011;5341;47.606;7.576;2023-02-01T07:00:00;7.72;;;5.07;;
10586;SDS011;5341;47.606;7.576;2023-02-01T07:02:32;5.35;;;4.40;;
10586;SDS011;5341;47.606;7.576;2023-02-01T07:04:59;7.55;;;4.93;;
10586;SDS011;5341;47.606;7.576;2023-02-01T07:07:28;6.70;;;4.95;;
10586;SDS011;5341;47.606;7.576;2023-02-01T07:09:56;7.03;;;5.10;;
10586;SDS011;5341;47.606;7.576;2023-02-01T07:12:24;6.20;;;4.60;;
10586;SDS011;5341;47.606;7.576;2023-02-01T07:14:53;5.90;;;5.05;;
10586;SDS011;5341;47.606;7.576;2023-02-01T07:17:28;6.75;;;4.40;;
10586;SDS011;5341;47.606;7.576;2023-02-01T07:19:57;6.47;;;4.97;;
10586;SDS011;5341;47.606;7.576;2023-02-01T07:22:29;6.30;;;5.03;;
10586;SDS011;5341;47.606;7.576;2023-02-01T07:24:56;7.35;;;4.57;;
10586;SDS011;5341;47.606;7.576;2023-02-01T07:27:26;5.72;;;4.60;;
10586;SDS011;5341;47.606;7.576;2023-02-01T07:29:54;5.32;;;4.20;;
10586;SDS011;5341;47.606;7.576;2023-02-01T07:32:22;6.55;;;4.38;;
10586;SDS011;5341;47.606;7.576;2023-02-01T07:34:51;6.15;;;4.10;;
10586;SDS011;5341;47.606;7.576;2023-02-01T07:37:21;4.95;;;3.58;;
10586;SDS011;5341;47.606;7.576;2023-02-01T07:39:49;5.40;;;3.78;;
10586;SDS011;5341;47.606;7.576;2023-02-01T07:42:17;4.93;;;3.63;;
10586;SDS011;5341;47.606;7.576;2023-02-01T07:44:46;3.10;;;2.80;;
10586;SDS011;5341;47.606;7.576;2023-02-01T07:47:13;3.30;;;2.80;;
10586;SDS011;5341;47.606;7.576;2023-02-01T07:49:42;2.83;;;2.45;;
10586;SDS011;5341;47.606;7.576;2023-02-01T07:52:13;2.95;;;2.60;;
10586;SDS011;5341;47.606;7.576;2023-02-01T07:54:44;3.08;;;2.70;;
10586;SDS011;5341;47.606;7.576;2023-02-01T07:57:15;2.60;;;2.17;;
10586;SDS011;5341;47.606;7.576;2023-02-01T07:59:43;2.47;;;2.03;;
10586;SDS011;5341;47.606;7.576;2023-02-01T08:02:27;3.78;;;2.60;;
10586;SDS011;5341;47.606;7.576;2023-02-01T08:04:58;4.32;;;2.80;;
10586;SDS011;5341;47.606;7.576;2023-02-01T08:07:28;3.70;;;2.53;;
10586;SDS011;5341;47.606;7.576;2023-02-01T08:09:56;5.53;;;2.65;;
10586;SDS011;5341;47.606;7.576;2023-02-01T08:12:24;3.67;;;2.40;;
10586;SDS011;5341;47.606;7.576;2023-02-01T08:14:52;3.17;;;2.53;;
10586;SDS011;5341;47.606;7.576;2023-02-01T08:17:22;3.38;;;2.30;;
10586;SDS011;5341;47.606;7.576;2023-02-01T08:19:50;2.70;;;2.50;;
10586;SDS011;5341;47.606;7.576;2023-02-01T08:22:18;4.00;;;2.50;;
10586;SDS011;5341;47.606;7.576;2023-02-01T08:24:48;3.88;;;2.45;;
10586;SDS011;5341;47.606;7.576;2023-02-01T08:27:17;2.92;;;2.22;;
10586;SDS011;5341;47.606;7.576;2023-02-01T08:29:51;2.65;;;2.38;;
10586;SDS011;5341;47.606;7.576;2023-02-01T08:32:21;2.47;;;2.28;;
10586;SDS011;5341;47.606;7.576;2023-02-01T08:34:51;3.10;;;2.28;;
10586;SDS011;5341;47.606;7.576;2023-02-01T08:37:19;3.85;;;2.50;;
10586;SDS011;5341;47.606;7.576;2023-02-01T08:39:49;3.25;;;2.20;;
10586;SDS011;5341;47.606;7.576;2023-02-01T08:42:17;3.00;;;2.30;;
10586;SDS011;5341;47.606;7.576;2023-02-01T08:45:08;2.72;;;2.20;;
10586;SDS011;5341;47.606;7.576;2023-02-01T08:47:36;3.05;;;2.47;;
10586;SDS011;5341;47.606;7.576;2023-02-01T08:50:05;3.40;;;2.47;;
10586;SDS011;5341;47.606;7.576;2023-02-01T08:52:34;2.90;;;2.28;;
10586;SDS011;5341;47.606;7.576;2023-02-01T08:55:03;2.35;;;2.15;;
10586;SDS011;5341;47.606;7.576;2023-02-01T08:57:31;2.67;;;2.08;;
10586;SDS011;5341;47.606;7.576;2023-02-01T08:59:58;3.25;;;2.30;;
10586;SDS011;5341;47.606;7.576;2023-02-01T09:02:26;3.38;;;2.13;;
10586;SDS011;5341;47.606;7.576;2023-02-01T09:05:00;6.60;;;2.92;;
10586;SDS011;5341;47.606;7.576;2023-02-01T09:09:54;2.88;;;2.30;;
10586;SDS011;5341;47.606;7.576;2023-02-01T09:12:31;3.33;;;2.40;;
10586;SDS011;5341;47.606;7.576;2023-02-01T09:14:59;4.07;;;2.47;;
10586;SDS011;5341;47.606;7.576;2023-02-01T09:17:26;3.38;;;2.47;;
10586;SDS011;5341;47.606;7.576;2023-02-01T09:19:55;2.88;;;2.20;;
10586;SDS011;5341;47.606;7.576;2023-02-01T09:22:23;2.60;;;2.40;;
10586;SDS011;5341;47.606;7.576;2023-02-01T09:24:51;3.20;;;2.35;;
10586;SDS011;5341;47.606;7.576;2023-02-01T09:27:20;3.72;;;2.40;;
10586;SDS011;5341;47.606;7.576;2023-02-01T09:29:49;2.90;;;2.50;;
10586;SDS011;5341;47.606;7.576;2023-02-01T09:32:18;4.38;;;2.60;;
10586;SDS011;5341;47.606;7.576;2023-02-01T09:34:46;4.07;;;2.50;;
10586;SDS011;5341;47.606;7.576;2023-02-01T09:37:13;4.57;;;2.42;;
10586;SDS011;5341;47.606;7.576;2023-02-01T09:39:41;4.90;;;2.70;;
10586;SDS011;5341;47.606;7.576;2023-02-01T09:42:18;3.10;;;2.40;;
10586;SDS011;5341;47.606;7.576;2023-02-01T09:45:04;5.22;;;2.28;;
10586;SDS011;5341;47.606;7.576;2023-02-01T09:47:39;2.67;;;2.47;;
10586;SDS011;5341;47.606;7.576;2023-02-01T09:50:14;2.78;;;2.30;;
10586;SDS011;5341;47.606;7.576;2023-02-01T09:52:48;3.30;;;2.30;;
10586;SDS011;5341;47.606;7.576;2023-02-01T09:55:23;6.10;;;2.30;;
10586;SDS011;5341;47.606;7.576;2023-02-01T09:57:58;4.05;;;2.70;;
10586;SDS011;5341;47.606;7.576;2023-02-01T10:00:34;4.57;;;2.53;;
10586;SDS011;5341;47.606;7.576;2023-02-01T10:03:03;3.35;;;2.50;;
10586;SDS011;5341;47.606;7.576;2023-02-01T10:09:03;4.82;;;2.92;;
10586;SDS011;5341;47.606;7.576;2023-02-01T10:11:52;7.53;;;3.10;;
10586;SDS011;5341;47.606;7.576;2023-02-01T10:14:36;4.13;;;2.90;;
10586;SDS011;5341;47.606;7.576;2023-02-01T10:17:20;6.18;;;2.88;;
10586;SDS011;5341;47.606;7.576;2023-02-01T10:19:59;4.53;;;2.70;;
10586;SDS011;5341;47.606;7.576;2023-02-01T10:22:35;3.88;;;2.63;;
10586;SDS011;5341;47.606;7.576;2023-02-01T10:25:12;4.80;;;2.60;;
10586;SDS011;5341;47.606;7.576;2023-02-01T10:27:45;4.75;;;2.50;;
10586;SDS011;5341;47.606;7.576;2023-02-01T10:30:18;5.38;;;2.83;;
10586;SDS011;5341;47.606;7.576;2023-02-01T10:32:49;3.78;;;3.08;;
10586;SDS011;5341;47.606;7.576;2023-02-01T10:35:31;5.55;;;2.88;;
10586;SDS011;5341;47.606;7.576;2023-02-01T10:38:04;4.25;;;2.65;;
10586;SDS011;5341;47.606;7.576;2023-02-01T10:54:00;4.18;;;3.05;;
10586;SDS011;5341;47.606;7.576;2023-02-01T10:59:13;7.03;;;3.10;;
10586;SDS011;5341;47.606;7.576;2023-02-01T11:07:05;6.07;;;3.65;;
10586;SDS011;5341;47.606;7.576;2023-02-01T11:12:22;7.10;;;3.45;;
10586;SDS011;5341;47.606;7.576;2023-02-01T11:14:56;5.80;;;3.55;;
10586;SDS011;5341;47.606;7.576;2023-02-01T11:17:26;10.80;;;3.97;;
10586;SDS011;5341;47.606;7.576;2023-02-01T11:20:00;6.40;;;3.53;;
10586;SDS011;5341;47.606;7.576;2023-02-01T11:22:29;7.45;;;4.00;;
10586;SDS011;5341;47.606;7.576;2023-02-01T11:24:56;6.30;;;3.67;;
10586;SDS011;5341;47.606;7.576;2023-02-01T11:27:27;5.45;;;3.33;;
10586;SDS011;5341;47.606;7.576;2023-02-01T11:29:55;9.35;;;3.60;;
10586;SDS011;5341;47.606;7.576;2023-02-01T11:32:29;9.95;;;4.03;;
10586;SDS011;5341;47.606;7.576;2023-02-01T11:34:59;10.93;;;4.35;;
10586;SDS011;5341;47.606;7.576;2023-02-01T11:37:31;7.55;;;4.80;;
10586;SDS011;5341;47.606;7.576;2023-02-01T11:40:02;8.45;;;5.43;;
10586;SDS011;5341;47.606;7.576;2023-02-01T11:42:54;9.43;;;4.50;;
10586;SDS011;5341;47.606;7.576;2023-02-01T11:45:27;6.70;;;4.13;;
10586;SDS011;5341;47.606;7.576;2023-02-01T11:47:56;5.57;;;3.65;;
10586;SDS011;5341;47.606;7.576;2023-02-01T11:50:28;7.72;;;3.63;;
10586;SDS011;5341;47.606;7.576;2023-02-01T11:53:07;8.77;;;4.40;;
10586;SDS011;5341;47.606;7.576;2023-02-01T11:56:06;6.95;;;4.32;;
10586;SDS011;5341;47.606;7.576;2023-02-01T12:01:38;11.55;;;4.40;;
10586;SDS011;5341;47.606;7.576;2023-02-01T12:07:23;8.27;;;3.88;;
10586;SDS011;5341;47.606;7.576;2023-02-01T12:10:01;7.63;;;4.20;;
10586;SDS011;5341;47.606;7.576;2023-02-01T12:12:48;9.57;;;3.95;;
10586;SDS011;5341;47.606;7.576;2023-02-01T12:15:39;8.18;;;3.83;;
10586;SDS011;5341;47.606;7.576;2023-02-01T12:21:37;9.27;;;4.50;;
10586;SDS011;5341;47.606;7.576;2023-02-01T12:24:23;10.60;;;4.18;;
10586;SDS011;5341;47.606;7.576;2023-02-01T12:27:05;12.45;;;4.25;;
10586;SDS011;5341;47.606;7.576;2023-02-01T12:29:48;11.93;;;4.38;;
10586;SDS011;5341;47.606;7.576;2023-02-01T12:32:42;12.55;;;3.80;;
10586;SDS011;5341;47.606;7.576;2023-02-01T12:35:44;8.35;;;3.42;;
10586;SDS011;5341;47.606;7.576;2023-02-01T12:38:26;11.68;;;4.05;;
10586;SDS011;5341;47.606;7.576;2023-02-01T12:41:10;7.93;;;3.80;;
10586;SDS011;5341;47.606;7.576;2023-02-01T12:43:57;12.65;;;4.45;;
10586;SDS011;5341;47.606;7.576;2023-02-01T12:46:27;11.43;;;3.75;;
10586;SDS011;5341;47.606;7.576;2023-02-01T12:49:02;11.05;;;4.50;;
10586;SDS011;5341;47.606;7.576;2023-02-01T12:51:36;11.98;;;4.10;;
10586;SDS011;5341;47.606;7.576;2023-02-01T12:54:09;11.18;;;4.05;;
10586;SDS011;5341;47.606;7.576;2023-02-01T12:56:44;10.43;;;4.63;;
10586;SDS011;5341;47.606;7.576;2023-02-01T12:59:22;8.90;;;3.83;;
10586;SDS011;5341;47.606;7.576;2023-02-01T13:02:11;8.85;;;3.90;;
10586;SDS011;5341;47.606;7.576;2023-02-01T13:04:52;10.15;;;4.38;;
10586;SDS011;5341;47.606;7.576;2023-02-01T13:07:28;7.60;;;3.30;;
10586;SDS011;5341;47.606;7.576;2023-02-01T13:10:02;8.50;;;3.30;;
10586;SDS011;5341;47.606;7.576;2023-02-01T13:12:38;10.18;;;3.55;;
10586;SDS011;5341;47.606;7.576;2023-02-01T13:15:16;8.85;;;3.70;;
10586;SDS011;5341;47.606;7.576;2023-02-01T13:17:47;8.35;;;3.50;;
10586;SDS011;5341;47.606;7.576;2023-02-01T13:20:21;8.30;;;3.53;;
10586;SDS011;5341;47.606;7.576;2023-02-01T13:22:54;8.73;;;3.53;;
10586;SDS011;5341;47.606;7.576;2023-02-01T13:25:28;8.68;;;3.40;;
10586;SDS011;5341;47.606;7.576;2023-02-01T13:28:02;9.90;;;3.35;;
10586;SDS011;5341;47.606;7.576;2023-02-01T13:30:38;9.88;;;4.38;;
10586;SDS011;5341;47.606;7.576;2023-02-01T13:42:25;12.68;;;4.80;;
10586;SDS011;5341;47.606;7.576;2023-02-01T13:44:56;10.98;;;4.03;;
10586;SDS011;5341;47.606;7.576;2023-02-01T13:47:27;9.65;;;4.30;;
10586;SDS011;5341;47.606;7.576;2023-02-01T13:49:58;14.43;;;5.00;;
10586;SDS011;5341;47.606;7.576;2023-02-01T13:52:32;11.57;;;4.05;;
10586;SDS011;5341;47.606;7.576;2023-02-01T13:55:19;9.45;;;3.95;;
10586;SDS011;5341;47.606;7.576;2023-02-01T13:57:58;7.68;;;4.03;;
10586;SDS011;5341;47.606;7.576;2023-02-01T14:00:36;9.80;;;4.00;;
10586;SDS011;5341;47.606;7.576;2023-02-01T14:03:09;13.93;;;4.45;;
10586;SDS011;5341;47.606;7.576;2023-02-01T14:08:37;10.07;;;3.85;;
10586;SDS011;5341;47.606;7.576;2023-02-01T14:23:15;9.68;;;4.20;;
10586;SDS011;5341;47.606;7.576;2023-02-01T14:25:45;10.07;;;4.00;;
10586;SDS011;5341;47.606;7.576;2023-02-01T14:28:22;9.13;;;3.70;;
10586;SDS011;5341;47.606;7.576;2023-02-01T14:30:53;11.35;;;3.95;;
10586;SDS011;5341;47.606;7.576;2023-02-01T14:33:24;11.20;;;4.25;;
10586;SDS011;5341;47.606;7.576;2023-02-01T14:35:56;11.50;;;4.43;;
10586;SDS011;5341;47.606;7.576;2023-02-01T14:38:30;13.75;;;4.80;;
10586;SDS011;5341;47.606;7.576;2023-02-01T14:41:10;13.45;;;4.30;;
10586;SDS011;5341;47.606;7.576;2023-02-01T14:47:05;13.32;;;4.10;;
10586;SDS011;5341;47.606;7.576;2023-02-01T14:49:38;13.10;;;4.13;;
10586;SDS011;5341;47.606;7.576;2023-02-01T14:52:16;11.68;;;4.60;;
10586;SDS011;5341;47.606;7.576;2023-02-01T14:54:48;13.63;;;5.10;;
10586;SDS011;5341;47.606;7.576;2023-02-01T14:57:20;11.65;;;4.80;;
10586;SDS011;5341;47.606;7.576;2023-02-01T14:59:55;12.23;;;4.32;;
10586;SDS011;5341;47.606;7.576;2023-02-01T15:02:31;9.98;;;4.70;;
10586;SDS011;5341;47.606;7.576;2023-02-01T15:05:02;10.07;;;4.53;;
10586;SDS011;5341;47.606;7.576;2023-02-01T15:07:49;12.63;;;4.70;;
10586;SDS011;5341;47.606;7.576;2023-02-01T15:10:17;10.93;;;4.82;;
10586;SDS011;5341;47.606;7.576;2023-02-01T15:12:47;10.85;;;4.05;;
10586;SDS011;5341;47.606;7.576;2023-02-01T15:15:18;9.93;;;4.32;;
10586;SDS011;5341;47.606;7.576;2023-02-01T15:17:50;8.77;;;4.07;;
10586;SDS011;5341;47.606;7.576;2023-02-01T15:20:20;12.60;;;5.82;;
10586;SDS011;5341;47.606;7.576;2023-02-01T15:22:52;9.77;;;3.70;;
10586;SDS011;5341;47.606;7.576;2023-02-01T15:25:21;8.65;;;3.67;;
10586;SDS011;5341;47.606;7.576;2023-02-01T15:27:50;9.27;;;3.65;;
10586;SDS011;5341;47.606;7.576;2023-02-01T15:30:22;9.55;;;3.47;;
10586;SDS011;5341;47.606;7.576;2023-02-01T15:32:51;9.90;;;3.78;;
10586;SDS011;5341;47.606;7.576;2023-02-01T15:35:36;29.02;;;13.63;;
10586;SDS011;5341;47.606;7.576;2023-02-01T15:38:18;12.55;;;6.13;;
10586;SDS011;5341;47.606;7.576;2023-02-01T15:40:54;12.10;;;5.35;;
10586;SDS011;5341;47.606;7.576;2023-02-01T15:43:23;10.45;;;5.78;;
10586;SDS011;5341;47.606;7.576;2023-02-01T15:45:53;9.48;;;5.63;;
10586;SDS011;5341;47.606;7.576;2023-02-01T15:48:24;11.32;;;4.32;;
10586;SDS011;5341;47.606;7.576;2023-02-01T15:50:53;9.55;;;4.35;;
10586;SDS011;5341;47.606;7.576;2023-02-01T15:53:23;8.88;;;4.25;;
10586;SDS011;5341;47.606;7.576;2023-02-01T15:55:57;12.77;;;4.43;;
10586;SDS011;5341;47.606;7.576;2023-02-01T15:58:27;10.48;;;3.80;;
10586;SDS011;5341;47.606;7.576;2023-02-01T16:00:59;9.73;;;3.88;;
10586;SDS011;5341;47.606;7.576;2023-02-01T16:03:34;9.13;;;4.57;;
10586;SDS011;5341;47.606;7.576;2023-02-01T16:06:05;14.23;;;5.00;;
10586;SDS011;5341;47.606;7.576;2023-02-01T16:08:48;9.60;;;4.15;;
10586;SDS011;5341;47.606;7.576;2023-02-01T16:11:22;11.88;;;4.45;;
10586;SDS011;5341;47.606;7.576;2023-02-01T16:14:08;12.23;;;3.70;;
10586;SDS011;5341;47.606;7.576;2023-02-01T16:16:40;9.98;;;3.53;;
10586;SDS011;5341;47.606;7.576;2023-02-01T16:19:12;11.75;;;3.95;;
10586;SDS011;5341;47.606;7.576;2023-02-01T16:21:39;10.40;;;3.92;;
10586;SDS011;5341;47.606;7.576;2023-02-01T16:24:07;11.40;;;3.90;;
10586;SDS011;5341;47.606;7.576;2023-02-01T16:29:04;7.00;;;3.67;;
10586;SDS011;5341;47.606;7.576;2023-02-01T16:34:13;9.18;;;4.13;;
10586;SDS011;5341;47.606;7.576;2023-02-01T16:36:43;12.18;;;4.53;;
10586;SDS011;5341;47.606;7.576;2023-02-01T16:39:17;11.13;;;4.00;;
10586;SDS011;5341;47.606;7.576;2023-02-01T16:41:45;10.13;;;3.85;;
10586;SDS011;5341;47.606;7.576;2023-02-01T16:44:13;9.85;;;3.67;;
10586;SDS011;5341;47.606;7.576;2023-02-01T16:46:47;12.70;;;3.90;;
10586;SDS011;5341;47.606;7.576;2023-02-01T16:49:19;9.82;;;3.95;;
10586;SDS011;5341;47.606;7.576;2023-02-01T16:51:48;10.88;;;4.45;;
10586;SDS011;5341;47.606;7.576;2023-02-01T16:54:27;7.45;;;3.13;;
10586;SDS011;5341;47.606;7.576;2023-02-01T16:56:55;17.75;;;4.20;;
10586;SDS011;5341;47.606;7.576;2023-02-01T16:59:31;9.90;;;4.00;;